Time;durP1;ratioP1;P1;durP2;ratioP2;P2;SDS_P1;SDS_P2;PMS_P1;PMS_P2;Temp;Humidity;BMP_temperature;BMP_pressure;BME280_temperature;BME280_humidity;BME280_pressure;Samples;Min_cycle;Max_cycle;Signal;HPM_P1;HPM_P2
2021/05/19 00:01:22;;;;;;;15.63;9.13;;;11.40;97.30;;;;;;4935142;29;20420;-86
2021/05/19 00:03:48;;;;;;;16.40;9.70;;;11.40;97.30;;;;;;4935430;29;20186;-86
2021/05/19 00:06:14;;;;;;;15.70;9.60;;;11.40;97.30;;;;;;4935613;29;20203;-86
2021/05/19 00:08:40;;;;;;;17.10;9.23;;;11.40;97.30;;;;;;4935536;29;20203;-86
2021/05/19 00:11:07;;;;;;;15.47;8.93;;;11.40;97.30;;;;;;4936820;29;20168;-86
2021/05/19 00:13:34;;;;;;;17.63;8.93;;;11.30;97.30;;;;;;4935333;29;20574;-87
2021/05/19 00:16:00;;;;;;;14.73;8.93;;;11.30;97.30;;;;;;4935343;29;20440;-87
2021/05/19 00:18:26;;;;;;;15.23;8.23;;;11.30;97.30;;;;;;4936592;29;20423;-87
2021/05/19 00:20:52;;;;;;;14.63;8.57;;;11.30;97.30;;;;;;4935372;29;20423;-87
2021/05/19 00:23:18;;;;;;;15.87;9.70;;;11.30;97.30;;;;;;4935510;29;20431;-86
2021/05/19 00:25:43;;;;;;;18.67;8.67;;;11.30;97.30;;;;;;4935677;29;20491;-86
2021/05/19 00:28:09;;;;;;;16.20;8.77;;;11.30;97.30;;;;;;4920442;29;20211;-86
2021/05/19 00:30:36;;;;;;;14.20;8.30;;;11.30;97.30;;;;;;4937118;29;20206;-87
2021/05/19 00:33:02;;;;;;;12.30;7.70;;;11.30;97.30;;;;;;4920316;29;20424;-86
2021/05/19 00:35:27;;;;;;;12.97;7.90;;;11.20;97.30;;;;;;4920056;29;20443;-87
2021/05/19 00:37:53;;;;;;;13.33;7.57;;;11.10;97.30;;;;;;4919761;29;20470;-86
2021/05/19 00:40:18;;;;;;;16.20;9.30;;;11.20;97.30;;;;;;4919682;29;20180;-86
2021/05/19 00:42:44;;;;;;;12.93;7.50;;;11.20;97.30;;;;;;4919279;29;20180;-85
2021/05/19 00:45:11;;;;;;;14.33;8.57;;;11.20;97.30;;;;;;4936237;29;20643;-87
2021/05/19 00:47:42;;;;;;;12.10;7.63;;;11.10;97.30;;;;;;4935512;29;20404;-86
2021/05/19 00:50:14;;;;;;;11.97;7.37;;;11.10;97.30;;;;;;4952614;28;20462;-86
2021/05/19 00:52:40;;;;;;;8.40;6.10;;;11.00;97.30;;;;;;4922577;29;20973;-86
2021/05/19 00:55:06;;;;;;;8.13;4.83;;;10.90;97.30;;;;;;4922783;29;20423;-87
2021/05/19 00:57:33;;;;;;;8.50;5.30;;;10.90;97.30;;;;;;4922050;29;20210;-87
2021/05/19 00:59:59;;;;;;;8.27;5.33;;;10.90;97.30;;;;;;4954680;29;20511;-87
2021/05/19 01:02:27;;;;;;;7.00;4.47;;;11.00;97.30;;;;;;4921742;29;21028;-87
2021/05/19 01:04:53;;;;;;;10.27;5.00;;;10.90;97.30;;;;;;4921730;29;20966;-88
2021/05/19 01:07:24;;;;;;;9.10;5.00;;;10.80;97.30;;;;;;4922345;29;20447;-87
2021/05/19 01:09:49;;;;;;;7.60;4.90;;;10.70;97.30;;;;;;4922401;29;20404;-87
2021/05/19 01:12:17;;;;;;;6.00;4.30;;;10.70;97.30;;;;;;4922462;29;20965;-87
2021/05/19 01:14:44;;;;;;;8.67;4.60;;;10.60;97.30;;;;;;4922570;29;20176;-87
2021/05/19 01:17:10;;;;;;;6.80;4.80;;;10.60;97.30;;;;;;4939156;29;20451;-86
2021/05/19 01:19:45;;;;;;;11.20;5.10;;;10.60;97.30;;;;;;4922162;29;20419;-86
2021/05/19 01:22:13;;;;;;;10.80;5.17;;;10.60;97.30;;;;;;4921999;29;20957;-86
2021/05/19 01:24:40;;;;;;;9.07;5.70;;;10.60;97.30;;;;;;4921991;29;20428;-87
2021/05/19 01:27:07;;;;;;;8.73;5.87;;;10.60;97.30;;;;;;4938922;29;20562;-87
2021/05/19 01:29:36;;;;;;;11.70;6.63;;;10.60;97.30;;;;;;4921926;29;20462;-86
2021/05/19 01:32:01;;;;;;;11.20;6.40;;;10.70;97.30;;;;;;4922368;29;20487;-86
2021/05/19 01:34:27;;;;;;;14.57;7.23;;;10.70;97.30;;;;;;4922428;29;20431;-86
2021/05/19 01:36:53;;;;;;;11.70;7.17;;;10.70;97.30;;;;;;4922446;29;20204;-86
2021/05/19 01:39:18;;;;;;;12.07;7.57;;;10.70;97.30;;;;;;4922956;29;20331;-85
2021/05/19 01:41:46;;;;;;;13.20;8.17;;;10.70;97.30;;;;;;4939484;29;20208;-86
2021/05/19 01:44:14;;;;;;;14.53;8.57;;;10.60;97.30;;;;;;4922284;29;20176;-86
2021/05/19 01:46:41;;;;;;;17.33;8.53;;;10.70;97.30;;;;;;4921579;29;20451;-85
2021/05/19 01:49:07;;;;;;;16.13;9.03;;;10.70;97.30;;;;;;4921842;29;20459;-86
2021/05/19 01:51:39;;;;;;;15.30;8.67;;;10.70;97.30;;;;;;4921310;29;20449;-86
2021/05/19 01:54:13;;;;;;;17.80;9.63;;;10.70;97.30;;;;;;4921699;29;20418;-87
2021/05/19 01:56:42;;;;;;;17.20;10.10;;;10.70;97.30;;;;;;4921861;29;20811;-86
2021/05/19 01:59:08;;;;;;;21.23;10.23;;;10.70;97.30;;;;;;4921664;29;20495;-86
2021/05/19 02:01:36;;;;;;;20.40;10.20;;;10.70;97.30;;;;;;4921431;29;20424;-87
2021/05/19 02:04:09;;;;;;;21.67;11.70;;;10.70;97.30;;;;;;4921414;29;20186;-86
2021/05/19 02:06:45;;;;;;;22.40;10.73;;;10.70;97.30;;;;;;4920815;29;20443;-86
2021/05/19 02:09:12;;;;;;;19.57;11.03;;;10.70;97.30;;;;;;4920459;29;20474;-86
2021/05/19 02:11:37;;;;;;;24.63;12.30;;;10.70;97.30;;;;;;4937275;29;20431;-87
2021/05/19 02:14:03;;;;;;;21.70;11.67;;;10.70;97.30;;;;;;4920423;29;20412;-86
2021/05/19 02:16:29;;;;;;;24.17;12.23;;;10.70;97.30;;;;;;4920151;29;20260;-86
2021/05/19 02:18:55;;;;;;;27.10;11.83;;;10.70;97.30;;;;;;4920789;29;20180;-86
2021/05/19 02:21:20;;;;;;;29.43;13.20;;;10.70;97.30;;;;;;4920490;29;20207;-86
2021/05/19 02:23:46;;;;;;;24.10;12.10;;;10.70;97.30;;;;;;4920693;29;20279;-86
2021/05/19 02:26:11;;;;;;;26.37;12.70;;;10.70;97.30;;;;;;4921512;29;20323;-86
2021/05/19 02:28:37;;;;;;;24.60;11.50;;;10.70;97.30;;;;;;4936548;29;20210;-86
2021/05/19 02:31:05;;;;;;;20.33;11.93;;;10.70;97.30;;;;;;4936464;29;20180;-86
2021/05/19 02:33:30;;;;;;;22.83;12.57;;;10.70;97.30;;;;;;4936589;29;20204;-86
2021/05/19 02:35:56;;;;;;;21.87;10.73;;;10.70;97.30;;;;;;4936088;29;20483;-86
2021/05/19 02:38:23;;;;;;;21.13;11.73;;;10.70;97.30;;;;;;4937790;29;20678;-86
2021/05/19 02:40:51;;;;;;;32.57;13.23;;;10.70;97.30;;;;;;4938392;29;20415;-86
2021/05/19 02:43:16;;;;;;;22.00;12.00;;;10.70;97.30;;;;;;4937301;29;20946;-86
2021/05/19 02:45:42;;;;;;;18.97;10.80;;;10.70;97.30;;;;;;4936981;29;20498;-86
2021/05/19 02:48:15;;;;;;;24.97;12.30;;;10.70;97.30;;;;;;4924637;29;20227;-86
2021/05/19 02:50:41;;;;;;;24.77;11.37;;;10.70;97.30;;;;;;4937051;29;20176;-87
2021/05/19 02:53:07;;;;;;;20.10;11.07;;;10.70;97.30;;;;;;4922375;29;20424;-86
2021/05/19 02:55:40;;;;;;;19.93;10.90;;;10.70;97.30;;;;;;4931566;29;20476;-86
2021/05/19 02:58:07;;;;;;;25.27;11.90;;;10.70;97.30;;;;;;4936106;29;20178;-86
2021/05/19 03:00:33;;;;;;;25.90;11.70;;;10.70;97.30;;;;;;4936326;29;20424;-86
2021/05/19 03:02:59;;;;;;;21.40;11.43;;;10.70;97.30;;;;;;4936126;29;20942;-86
2021/05/19 03:05:24;;;;;;;22.60;12.90;;;10.80;97.30;;;;;;4933560;29;20573;-86
2021/05/19 03:07:50;;;;;;;24.40;12.33;;;10.80;97.30;;;;;;4933078;29;20207;-86
2021/05/19 03:10:16;;;;;;;24.90;11.63;;;10.80;97.30;;;;;;4932950;29;20186;-87
2021/05/19 03:12:45;;;;;;;20.50;12.00;;;10.80;97.30;;;;;;4933976;29;20227;-86
2021/05/19 03:15:11;;;;;;;21.53;11.10;;;10.80;97.30;;;;;;4933483;29;20648;-86
2021/05/19 03:17:37;;;;;;;28.87;11.47;;;10.80;97.30;;;;;;4934139;29;20440;-86
2021/05/19 03:20:04;;;;;;;24.33;11.60;;;10.80;97.30;;;;;;4935472;29;20978;-86
2021/05/19 03:22:30;;;;;;;21.70;11.63;;;10.80;97.30;;;;;;4933894;29;20190;-86
2021/05/19 03:24:55;;;;;;;24.20;11.83;;;10.70;97.30;;;;;;4934877;29;20778;-86
2021/05/19 03:27:23;;;;;;;22.20;11.70;;;10.70;97.30;;;;;;4935562;29;20235;-85
2021/05/19 03:29:49;;;;;;;19.93;10.50;;;10.70;97.30;;;;;;4935228;29;20207;-86
2021/05/19 03:32:14;;;;;;;21.97;11.30;;;10.60;97.30;;;;;;4934707;29;20467;-86
2021/05/19 03:34:40;;;;;;;25.80;13.67;;;10.60;97.30;;;;;;4935161;29;20188;-86
2021/05/19 03:37:05;;;;;;;25.00;13.60;;;10.60;97.30;;;;;;4934694;29;20200;-86
2021/05/19 03:39:31;;;;;;;23.27;12.27;;;10.60;97.30;;;;;;4934983;29;20203;-86
2021/05/19 03:41:56;;;;;;;20.87;10.97;;;10.60;97.30;;;;;;4935294;29;20684;-86
2021/05/19 03:44:24;;;;;;;24.27;12.17;;;10.70;97.30;;;;;;4936689;29;20203;-86
2021/05/19 03:46:50;;;;;;;22.80;11.83;;;10.70;97.30;;;;;;4935803;29;20674;-86
2021/05/19 03:49:18;;;;;;;21.30;11.37;;;10.70;97.30;;;;;;4937202;29;20531;-86
2021/05/19 03:51:44;;;;;;;26.17;11.97;;;10.70;97.30;;;;;;4935801;29;20604;-86
2021/05/19 03:54:10;;;;;;;29.27;12.23;;;10.70;97.30;;;;;;4935928;29;20950;-85
2021/05/19 03:56:36;;;;;;;24.63;12.33;;;10.70;97.30;;;;;;4936948;29;20451;-86
2021/05/19 03:59:01;;;;;;;22.03;11.20;;;10.70;97.30;;;;;;4935420;29;20536;-86
2021/05/19 04:01:27;;;;;;;25.10;13.13;;;10.70;97.30;;;;;;4936414;29;20199;-86
2021/05/19 04:03:53;;;;;;;23.87;11.50;;;10.70;97.30;;;;;;4934874;29;20662;-86
2021/05/19 04:06:22;;;;;;;20.37;12.47;;;10.70;97.30;;;;;;4934515;29;20203;-85
2021/05/19 04:08:47;;;;;;;25.37;12.23;;;10.70;97.30;;;;;;4934500;29;20207;-85
2021/05/19 04:11:13;;;;;;;29.87;12.67;;;10.70;97.30;;;;;;4934398;29;20416;-86
2021/05/19 04:13:39;;;;;;;26.53;13.07;;;10.70;97.30;;;;;;4934390;29;20184;-86
2021/05/19 04:16:06;;;;;;;31.60;13.60;;;10.60;97.30;;;;;;4934601;29;20204;-86
2021/05/19 04:18:31;;;;;;;32.63;13.87;;;10.60;97.30;;;;;;4934682;29;20232;-86
2021/05/19 04:20:57;;;;;;;34.27;14.37;;;10.60;97.30;;;;;;4934538;29;20428;-86
2021/05/19 04:23:25;;;;;;;32.93;15.47;;;10.60;97.30;;;;;;4934297;29;20190;-86
2021/05/19 04:25:51;;;;;;;25.07;13.90;;;10.60;97.30;;;;;;4936858;29;20231;-86
2021/05/19 04:28:17;;;;;;;28.00;15.30;;;10.60;97.30;;;;;;4922232;29;20467;-86
2021/05/19 04:30:42;;;;;;;26.73;14.40;;;10.60;97.30;;;;;;4922598;29;20657;-86
2021/05/19 04:33:08;;;;;;;29.10;15.10;;;10.60;97.30;;;;;;4922535;29;20549;-87
2021/05/19 04:35:34;;;;;;;30.43;14.87;;;10.60;97.30;;;;;;4921123;29;20187;-86
2021/05/19 04:38:00;;;;;;;25.17;13.70;;;10.60;97.30;;;;;;4920375;29;20184;-87
2021/05/19 04:40:26;;;;;;;27.47;15.23;;;10.60;97.30;;;;;;4921049;29;20243;-87
2021/05/19 04:42:51;;;;;;;30.80;14.30;;;10.60;97.30;;;;;;4921072;29;20424;-87
2021/05/19 04:45:17;;;;;;;26.83;14.63;;;10.60;97.30;;;;;;4938422;29;20708;-87
2021/05/19 04:47:43;;;;;;;28.57;15.23;;;10.60;97.30;;;;;;4922489;29;20215;-87
2021/05/19 04:50:10;;;;;;;35.40;16.00;;;10.60;97.30;;;;;;4922651;29;20207;-86
2021/05/19 04:52:36;;;;;;;32.40;16.40;;;10.60;97.30;;;;;;4922902;29;20176;-86
2021/05/19 04:55:04;;;;;;;33.63;16.10;;;10.60;97.30;;;;;;4923916;29;20403;-86
2021/05/19 04:57:30;;;;;;;32.43;16.10;;;10.60;97.30;;;;;;4923072;29;20442;-86
2021/05/19 04:59:56;;;;;;;39.57;17.40;;;10.60;97.30;;;;;;4923171;29;20423;-86
2021/05/19 05:02:24;;;;;;;34.30;17.60;;;10.60;97.30;;;;;;4938635;29;20235;-86
2021/05/19 05:04:50;;;;;;;35.07;17.57;;;10.60;97.30;;;;;;4923080;29;20180;-87
2021/05/19 05:07:16;;;;;;;38.63;17.33;;;10.60;97.30;;;;;;4939689;29;20502;-86
2021/05/19 05:09:55;;;;;;;;;;;;;;;;;;;;;
2021/05/19 05:12:23;;;;;;;37.67;16.47;;;10.60;97.30;;;;;;4939478;29;20164;-86
2021/05/19 05:15:10;;;;;;;32.57;17.00;;;10.60;97.30;;;;;;4925108;29;20423;-86
2021/05/19 05:17:39;;;;;;;37.60;18.17;;;10.60;97.30;;;;;;4926383;29;20478;-84
2021/05/19 05:20:09;;;;;;;28.37;15.17;;;10.60;97.30;;;;;;4920139;29;20749;-86
2021/05/19 05:22:35;;;;;;;30.10;15.13;;;10.60;97.30;;;;;;4920689;29;20467;-86
2021/05/19 05:25:03;;;;;;;26.53;15.73;;;10.60;97.30;;;;;;4920060;29;20424;-86
2021/05/19 05:27:29;;;;;;;27.33;12.23;;;10.60;97.30;;;;;;4964165;23;20526;-87
2021/05/19 05:29:54;;;;;;;21.03;11.43;;;10.60;97.30;;;;;;4939581;29;20489;-87
2021/05/19 05:32:20;;;;;;;24.80;13.07;;;10.60;97.30;;;;;;4938830;29;20179;-85
2021/05/19 05:34:48;;;;;;;24.00;11.70;;;10.60;97.30;;;;;;4938458;28;20182;-87
2021/05/19 05:37:14;;;;;;;24.90;11.07;;;10.70;97.30;;;;;;4939135;29;20245;-87
2021/05/19 05:39:39;;;;;;;19.77;11.00;;;10.70;97.30;;;;;;4957958;29;20800;-87
2021/05/19 05:42:06;;;;;;;17.97;10.70;;;10.70;97.30;;;;;;4940309;29;20921;-87
2021/05/19 05:44:31;;;;;;;20.70;11.60;;;10.70;97.30;;;;;;4940593;29;20190;-87
2021/05/19 05:46:57;;;;;;;18.00;11.03;;;10.80;97.30;;;;;;4957145;29;20431;-87
2021/05/19 05:49:23;;;;;;;21.33;12.27;;;10.80;97.30;;;;;;4940590;29;20199;-88
2021/05/19 05:51:48;;;;;;;23.90;12.27;;;10.90;97.30;;;;;;4958172;29;20602;-88
2021/05/19 05:54:14;;;;;;;20.97;12.63;;;11.00;97.30;;;;;;4957523;29;20207;-87
2021/05/19 05:56:42;;;;;;;25.10;13.37;;;11.10;97.30;;;;;;4940990;29;20234;-88
2021/05/19 05:59:08;;;;;;;24.13;12.90;;;11.10;97.30;;;;;;4941497;29;20197;-88
2021/05/19 06:01:34;;;;;;;25.97;13.53;;;11.20;97.30;;;;;;4942282;29;20429;-86
2021/05/19 06:04:00;;;;;;;27.03;13.87;;;11.30;97.30;;;;;;4959902;29;20423;-88
2021/05/19 06:06:26;;;;;;;30.60;15.10;;;11.30;97.30;;;;;;4942466;29;20756;-89
2021/05/19 06:08:52;;;;;;;25.60;13.70;;;11.20;97.30;;;;;;4960797;29;20206;-87
2021/05/19 06:11:17;;;;;;;23.80;13.70;;;11.20;97.30;;;;;;4941608;29;20427;-87
2021/05/19 06:13:43;;;;;;;24.40;14.27;;;11.20;97.30;;;;;;4942408;29;20179;-87
2021/05/19 06:16:08;;;;;;;27.37;13.80;;;11.30;97.30;;;;;;4942094;29;20689;-88
2021/05/19 06:18:34;;;;;;;23.43;12.80;;;11.30;97.30;;;;;;4942511;29;20294;-86
2021/05/19 06:21:00;;;;;;;23.63;13.47;;;11.30;97.30;;;;;;4941980;29;20262;-87
2021/05/19 06:23:26;;;;;;;27.87;13.43;;;11.40;97.30;;;;;;4942315;29;20175;-87
2021/05/19 06:25:51;;;;;;;24.93;14.00;;;11.40;97.30;;;;;;4942026;29;20418;-88
2021/05/19 06:28:17;;;;;;;24.40;13.33;;;11.40;97.30;;;;;;4954197;28;20590;-87
2021/05/19 06:30:42;;;;;;;26.83;13.80;;;11.40;97.30;;;;;;4954482;29;20194;-87
2021/05/19 06:33:08;;;;;;;25.53;14.33;;;11.40;97.30;;;;;;4958205;29;20241;-88
2021/05/19 06:35:33;;;;;;;31.33;15.87;;;11.50;97.30;;;;;;4941461;29;20607;-87
2021/05/19 06:37:59;;;;;;;29.20;15.73;;;11.40;97.30;;;;;;4958764;29;20203;-88
2021/05/19 06:40:24;;;;;;;31.33;15.70;;;11.40;97.30;;;;;;4959073;29;20179;-86
2021/05/19 06:42:50;;;;;;;28.60;15.43;;;11.40;97.30;;;;;;4957902;29;20905;-88
2021/05/19 06:45:16;;;;;;;25.27;15.20;;;11.50;97.30;;;;;;4942257;29;20186;-88
2021/05/19 06:47:42;;;;;;;28.80;15.40;;;11.50;97.30;;;;;;4956102;28;20211;-87
2021/05/19 06:50:08;;;;;;;28.77;16.20;;;11.50;97.30;;;;;;4958052;29;21048;-88
2021/05/19 06:52:34;;;;;;;37.90;16.73;;;11.50;97.30;;;;;;4942547;29;20179;-88
2021/05/19 06:55:01;;;;;;;30.53;18.33;;;11.60;97.30;;;;;;4959681;29;21004;-87
2021/05/19 06:57:27;;;;;;;33.70;16.00;;;11.70;97.30;;;;;;4957788;29;20195;-88
2021/05/19 06:59:52;;;;;;;33.23;17.33;;;11.80;97.30;;;;;;4957903;29;20839;-89
2021/05/19 07:02:18;;;;;;;32.37;15.90;;;11.90;97.30;;;;;;4958815;29;20537;-89
2021/05/19 07:04:43;;;;;;;27.13;16.70;;;12.00;97.30;;;;;;4955010;29;20179;-92
2021/05/19 07:07:09;;;;;;;27.70;16.00;;;12.10;97.30;;;;;;4956392;29;20737;-90
2021/05/19 07:09:36;;;;;;;26.37;15.57;;;12.00;97.30;;;;;;4956637;29;20199;-91
2021/05/19 07:12:01;;;;;;;29.40;16.60;;;12.00;97.30;;;;;;4956631;29;20333;-89
2021/05/19 07:14:27;;;;;;;28.30;16.30;;;12.00;97.30;;;;;;4940748;29;20485;-90
2021/05/19 07:16:53;;;;;;;30.90;15.90;;;12.00;97.30;;;;;;4957482;29;20172;-90
2021/05/19 07:19:20;;;;;;;25.13;15.57;;;11.90;97.30;;;;;;4956958;29;20175;-90
2021/05/19 07:21:45;;;;;;;28.57;15.80;;;11.90;97.30;;;;;;4941105;29;20937;-89
2021/05/19 07:24:12;;;;;;;22.40;13.50;;;11.90;97.30;;;;;;4956823;29;20427;-91
2021/05/19 07:26:39;;;;;;;24.37;15.10;;;11.90;97.30;;;;;;4956951;29;20230;-90
2021/05/19 07:29:05;;;;;;;27.47;15.07;;;11.90;97.30;;;;;;4940379;29;20510;-91
2021/05/19 07:31:31;;;;;;;29.07;15.90;;;11.90;97.30;;;;;;4940828;29;20917;-89
2021/05/19 07:33:57;;;;;;;27.73;16.00;;;11.90;97.30;;;;;;4940958;29;20199;-90
2021/05/19 07:36:23;;;;;;;25.43;15.30;;;11.90;97.30;;;;;;4941337;29;20418;-90
2021/05/19 07:38:48;;;;;;;28.90;15.60;;;11.90;97.30;;;;;;4940048;29;20203;-90
2021/05/19 07:41:14;;;;;;;25.30;15.30;;;11.90;97.30;;;;;;4940608;29;20238;-92
2021/05/19 07:43:39;;;;;;;28.43;16.00;;;11.90;97.30;;;;;;4958757;28;20243;-94
2021/05/19 07:46:05;;;;;;;28.90;16.27;;;12.00;97.30;;;;;;4970930;28;20183;-89
2021/05/19 07:48:30;;;;;;;28.83;17.47;;;12.10;97.30;;;;;;4937975;29;20215;-91
2021/05/19 07:50:56;;;;;;;31.50;16.40;;;12.20;97.30;;;;;;4937938;29;20175;-90
2021/05/19 07:53:21;;;;;;;29.07;17.00;;;12.40;97.30;;;;;;4938001;29;20186;-89
2021/05/19 07:58:37;;;;;;;24.27;16.00;;;12.90;97.30;;;;;;4955475;29;20214;-93
2021/05/19 08:01:22;;;;;;;31.30;17.30;;;13.10;97.30;;;;;;4937686;29;20418;-89
2021/05/19 08:03:48;;;;;;;23.73;14.33;;;13.30;97.30;;;;;;4938432;29;20427;-90
2021/05/19 08:06:14;;;;;;;21.90;13.90;;;13.40;97.30;;;;;;4955413;29;20415;-90
2021/05/19 08:08:40;;;;;;;21.67;13.97;;;13.50;97.30;;;;;;4956110;29;20505;-91
2021/05/19 08:11:05;;;;;;;21.30;13.63;;;13.60;97.30;;;;;;4938799;29;20418;-90
2021/05/19 08:13:33;;;;;;;21.87;13.10;;;13.70;97.30;;;;;;4939034;29;20193;-90
2021/05/19 08:16:01;;;;;;;18.27;12.20;;;13.70;97.30;;;;;;4939218;29;20183;-90
2021/05/19 08:18:26;;;;;;;20.37;13.27;;;13.70;97.30;;;;;;4938500;29;20442;-90
2021/05/19 08:20:52;;;;;;;16.80;11.77;;;13.60;97.30;;;;;;4937842;29;20433;-89
2021/05/19 08:23:18;;;;;;;16.20;10.93;;;13.80;97.30;;;;;;4937867;29;20183;-90
2021/05/19 08:25:44;;;;;;;16.70;9.83;;;13.80;97.30;;;;;;4937899;29;20654;-90
2021/05/19 08:28:09;;;;;;;15.77;10.30;;;13.90;97.30;;;;;;4938210;29;20535;-90
2021/05/19 08:30:35;;;;;;;18.50;10.27;;;13.90;97.30;;;;;;4956503;29;20180;-90
2021/05/19 08:33:00;;;;;;;16.40;10.57;;;14.00;97.30;;;;;;4939090;29;20206;-90
2021/05/19 08:35:26;;;;;;;17.40;11.87;;;13.90;97.30;;;;;;4938889;29;20182;-90
2021/05/19 08:37:51;;;;;;;17.67;12.23;;;13.90;97.30;;;;;;4939145;29;20716;-89
2021/05/19 08:40:17;;;;;;;19.07;12.13;;;13.90;97.30;;;;;;4955843;29;20168;-90
2021/05/19 08:42:42;;;;;;;18.30;11.83;;;14.00;97.30;;;;;;4939731;29;20202;-90
2021/05/19 08:45:09;;;;;;;15.20;10.00;;;14.20;97.30;;;;;;4939952;29;20189;-89
2021/05/19 08:47:35;;;;;;;15.83;9.97;;;14.40;97.30;;;;;;4939892;29;20282;-90
2021/05/19 08:50:06;;;;;;;13.13;9.30;;;14.50;97.30;;;;;;4939342;29;20949;-90
2021/05/19 08:52:37;;;;;;;14.90;9.00;;;14.50;97.30;;;;;;4938740;29;20214;-90
2021/05/19 08:55:08;;;;;;;12.40;9.00;;;14.40;97.30;;;;;;4938891;29;20798;-90
2021/05/19 08:57:36;;;;;;;16.03;10.00;;;14.20;97.30;;;;;;4940612;29;20439;-90
2021/05/19 09:00:03;;;;;;;13.13;9.23;;;14.10;97.30;;;;;;4937896;29;20509;-91
2021/05/19 09:02:28;;;;;;;14.83;9.40;;;14.10;97.30;;;;;;4938417;29;20454;-90
2021/05/19 09:04:59;;;;;;;11.37;9.00;;;14.30;97.30;;;;;;4937972;29;20453;-90
2021/05/19 09:07:25;;;;;;;16.40;9.83;;;14.60;97.30;;;;;;4938914;29;20254;-89
2021/05/19 09:09:51;;;;;;;12.00;7.57;;;14.80;97.30;;;;;;4939003;29;20941;-90
2021/05/19 09:12:16;;;;;;;10.33;7.03;;;14.90;97.30;;;;;;4942905;29;20421;-89
2021/05/19 09:15:04;;;;;;;10.17;6.70;;;14.90;97.30;;;;;;4942032;29;20180;-90
2021/05/19 09:17:34;;;;;;;10.43;7.00;;;14.80;96.80;;;;;;4959191;29;20183;-89
2021/05/19 09:20:06;;;;;;;11.90;7.60;;;14.80;97.30;;;;;;4958724;29;20752;-89
2021/05/19 09:22:41;;;;;;;10.67;7.50;;;14.90;97.30;;;;;;4959070;29;20395;-89
2021/05/19 09:25:26;;;;;;;10.40;7.30;;;14.90;97.30;;;;;;4942447;29;20433;-89
2021/05/19 09:27:53;;;;;;;10.10;6.67;;;14.90;96.90;;;;;;4950830;28;20535;-89
2021/05/19 09:30:44;;;;;;;15.43;7.37;;;14.80;97.10;;;;;;4960545;28;20421;-89
2021/05/19 09:33:24;;;;;;;9.93;7.73;;;14.80;96.20;;;;;;4960397;28;20424;-89
2021/05/19 09:36:20;;;;;;;9.37;6.97;;;14.90;96.30;;;;;;4961685;28;20418;-90
2021/05/19 09:38:49;;;;;;;13.40;7.80;;;14.80;97.30;;;;;;4963987;28;20446;-89
2021/05/19 09:41:28;;;;;;;8.67;5.60;;;14.40;97.30;;;;;;4965085;28;20426;-88
2021/05/19 09:43:56;;;;;;;8.67;4.40;;;13.80;97.30;;;;;;4964836;28;20414;-89
2021/05/19 09:46:34;;;;;;;6.03;2.70;;;13.10;97.30;;;;;;4969642;28;21023;-88
2021/05/19 09:49:22;;;;;;;4.43;2.47;;;12.60;97.30;;;;;;4971053;28;20533;-89
2021/05/19 09:51:49;;;;;;;4.13;2.40;;;12.30;97.30;;;;;;4972961;28;20413;-89
2021/05/19 09:54:32;;;;;;;2.97;2.27;;;12.20;97.30;;;;;;4972939;28;20432;-88
2021/05/19 09:57:03;;;;;;;5.20;3.53;;;12.20;97.30;;;;;;4974685;28;20501;-86
2021/05/19 09:59:29;;;;;;;3.20;2.97;;;12.20;97.30;;;;;;4963158;28;20426;-86
2021/05/19 10:01:57;;;;;;;6.30;4.10;;;12.20;97.30;;;;;;4980400;28;20418;-86
2021/05/19 10:04:27;;;;;;;9.43;6.50;;;12.30;97.30;;;;;;4963038;28;20508;-88
2021/05/19 10:06:53;;;;;;;14.83;8.80;;;12.40;97.30;;;;;;4978855;28;20473;-86
2021/05/19 10:09:19;;;;;;;12.07;8.70;;;12.50;97.30;;;;;;4961419;28;20573;-86
2021/05/19 10:11:45;;;;;;;9.40;5.77;;;12.50;97.30;;;;;;4961390;28;20450;-87
2021/05/19 10:14:14;;;;;;;9.03;5.50;;;12.40;97.30;;;;;;4979344;28;20166;-87
2021/05/19 10:16:51;;;;;;;7.13;5.50;;;12.30;97.30;;;;;;4962708;28;20421;-87
2021/05/19 10:19:25;;;;;;;12.70;7.03;;;12.20;97.30;;;;;;4963082;28;20437;-89
2021/05/19 10:21:52;;;;;;;8.00;5.03;;;12.20;97.30;;;;;;4963001;28;20786;-88
2021/05/19 10:24:17;;;;;;;6.93;5.20;;;12.10;97.30;;;;;;4963736;28;20542;-88
2021/05/19 10:27:04;;;;;;;6.60;4.60;;;12.20;97.30;;;;;;4962192;28;20466;-88
2021/05/19 10:29:51;;;;;;;6.23;4.50;;;12.20;97.30;;;;;;4961736;28;20206;-87
2021/05/19 10:32:23;;;;;;;6.23;4.20;;;12.20;97.30;;;;;;4977701;28;20418;-87
2021/05/19 10:35:05;;;;;;;5.17;3.77;;;12.30;97.30;;;;;;4959911;28;20433;-87
2021/05/19 10:37:31;;;;;;;9.00;4.60;;;12.40;97.30;;;;;;4960109;28;20508;-88
2021/05/19 10:40:19;;;;;;;6.43;4.80;;;12.50;97.30;;;;;;4960550;28;20932;-88
2021/05/19 10:42:56;;;;;;;7.10;4.53;;;12.80;97.30;;;;;;4968144;28;20213;-88
2021/05/19 10:45:22;;;;;;;7.03;5.23;;;13.00;97.30;;;;;;4961590;28;20496;-88
2021/05/19 10:47:48;;;;;;;8.47;5.70;;;13.20;97.30;;;;;;4963349;28;20445;-87
2021/05/19 10:50:34;;;;;;;14.77;8.67;;;13.30;97.30;;;;;;4980686;28;20163;-88
2021/05/19 10:58:44;;;;;;;11.27;7.47;;;13.60;97.30;;;;;;4981037;28;20437;-88
2021/05/19 11:01:11;;;;;;;13.27;9.40;;;13.70;97.30;;;;;;4981514;28;20483;-89
2021/05/19 11:04:02;;;;;;;9.70;7.30;;;14.00;97.30;;;;;;4964839;28;20414;-88
2021/05/19 11:06:55;;;;;;;10.80;7.23;;;14.20;97.30;;;;;;4982316;28;20457;-89
2021/05/19 11:09:30;;;;;;;27.87;8.00;;;14.30;97.30;;;;;;4964963;28;20464;-88
2021/05/19 11:12:40;;;;;;;10.00;7.40;;;14.50;97.30;;;;;;4961946;28;20958;-89
2021/05/19 11:21:55;;;;;;;;;;;;;;;;;;;;;
2021/05/19 11:25:13;;;;;;;;;;;;;;;;;;;;;
2021/05/19 11:27:39;;;;;;;12.20;8.40;;;15.70;96.50;;;;;;5002087;23;20541;-76
2021/05/19 11:30:17;;;;;;;12.07;7.80;;;15.90;96.00;;;;;;4971003;28;21013;-76
2021/05/19 11:32:44;;;;;;;6.83;5.10;;;16.00;95.00;;;;;;4935301;28;20179;-74
2021/05/19 11:35:21;;;;;;;4.10;2.80;;;15.50;94.90;;;;;;4935891;29;20421;-73
2021/05/19 11:38:16;;;;;;;8.43;2.87;;;15.00;93.50;;;;;;4952964;29;20410;-76
2021/05/19 11:40:51;;;;;;;4.90;3.43;;;14.30;95.70;;;;;;4919763;29;20439;-76
2021/05/19 11:43:20;;;;;;;5.07;3.53;;;13.90;96.10;;;;;;4935649;29;20996;-75
2021/05/19 11:45:53;;;;;;;25.80;6.60;;;13.70;97.30;;;;;;4935790;29;20411;-75
2021/05/19 11:48:24;;;;;;;5.17;3.93;;;13.50;97.30;;;;;;4952848;29;20454;-76
2021/05/19 11:50:50;;;;;;;9.33;4.40;;;13.30;97.30;;;;;;4935466;29;20449;-77
2021/05/19 11:53:16;;;;;;;8.30;5.53;;;13.20;97.30;;;;;;4952584;29;20419;-77
2021/05/19 11:55:52;;;;;;;7.03;4.77;;;13.10;97.30;;;;;;4935412;29;20486;-77
2021/05/19 11:58:22;;;;;;;8.13;4.90;;;13.10;97.30;;;;;;4935604;29;20569;-77
2021/05/19 12:00:48;;;;;;;10.93;4.87;;;13.00;97.30;;;;;;4935518;29;20451;-77
2021/05/19 12:03:18;;;;;;;6.77;5.47;;;13.00;97.30;;;;;;4935051;29;20435;-77
2021/05/19 12:05:47;;;;;;;7.77;4.30;;;13.00;97.30;;;;;;4935536;29;20179;-77
2021/05/19 12:08:14;;;;;;;5.43;3.93;;;13.10;97.30;;;;;;4935378;29;20454;-77
2021/05/19 12:10:41;;;;;;;8.57;4.70;;;13.20;97.30;;;;;;4935421;29;20443;-77
2021/05/19 12:13:07;;;;;;;5.83;3.80;;;13.30;97.30;;;;;;4952523;29;20683;-76
2021/05/19 12:15:37;;;;;;;5.60;4.20;;;13.50;97.30;;;;;;4952450;29;20453;-76
2021/05/19 12:18:06;;;;;;;5.63;4.20;;;13.80;97.30;;;;;;4935342;29;20466;-77
2021/05/19 12:20:34;;;;;;;6.63;4.30;;;14.00;97.30;;;;;;4934828;29;20419;-76
2021/05/19 12:23:05;;;;;;;6.60;4.53;;;14.20;97.30;;;;;;4935210;29;20426;-77
2021/05/19 12:25:35;;;;;;;5.27;3.30;;;14.50;97.30;;;;;;4935161;29;20419;-77
2021/05/19 12:28:07;;;;;;;4.20;3.40;;;14.60;96.10;;;;;;4952178;29;20482;-76
2021/05/19 12:30:47;;;;;;;3.93;3.00;;;14.80;97.30;;;;;;4935505;29;20422;-76
2021/05/19 12:33:14;;;;;;;3.33;2.70;;;14.80;94.50;;;;;;4935271;29;20458;-76
2021/05/19 12:35:46;;;;;;;3.47;2.70;;;15.00;93.90;;;;;;4935594;29;20442;-76
2021/05/19 12:38:12;;;;;;;3.77;2.70;;;15.10;94.50;;;;;;4952681;29;20446;-79
2021/05/19 12:40:39;;;;;;;3.60;2.40;;;15.20;94.10;;;;;;4935004;29;20879;-77
2021/05/19 12:43:19;;;;;;;3.20;2.70;;;15.30;94.10;;;;;;4934594;29;20463;-78
2021/05/19 12:45:45;;;;;;;3.13;2.37;;;15.40;93.60;;;;;;4936512;29;20423;-77
2021/05/19 12:48:16;;;;;;;4.63;2.77;;;15.60;92.40;;;;;;4938828;29;20469;-76
2021/05/19 12:51:12;;;;;;;3.97;2.70;;;15.80;91.40;;;;;;4938477;29;20573;-76
2021/05/19 12:53:45;;;;;;;7.93;5.13;;;16.20;91.70;;;;;;4937842;28;20827;-76
2021/05/19 12:56:25;;;;;;;10.70;4.57;;;16.60;90.80;;;;;;4938831;29;20430;-76
2021/05/19 12:59:06;;;;;;;6.80;4.80;;;16.70;91.40;;;;;;4939067;29;20888;-76
2021/05/19 13:01:41;;;;;;;9.60;5.00;;;17.00;92.20;;;;;;4938572;29;21028;-78